sensor_id;sensor_type;location;lat;lon;timestamp;temperature;humidity
19536;HTU21D;9913;51.168;4.124;2024-01-30T00:01:53;9.78;103.34
19536;HTU21D;9913;51.168;4.124;2024-01-30T00:04:23;9.81;103.46
19536;HTU21D;9913;51.168;4.124;2024-01-30T00:06:52;9.75;103.32
19536;HTU21D;9913;51.168;4.124;2024-01-30T00:09:21;9.81;103.44
19536;HTU21D;9913;51.168;4.124;2024-01-30T00:11:49;9.77;103.52
19536;HTU21D;9913;51.168;4.124;2024-01-30T00:14:18;9.75;103.32
19536;HTU21D;9913;51.168;4.124;2024-01-30T00:16:46;9.81;103.69
19536;HTU21D;9913;51.168;4.124;2024-01-30T00:19:15;9.80;103.53
19536;HTU21D;9913;51.168;4.124;2024-01-30T00:21:45;9.83;103.61
19536;HTU21D;9913;51.168;4.124;2024-01-30T00:24:13;9.81;103.56
19536;HTU21D;9913;51.168;4.124;2024-01-30T00:26:42;9.81;103.71
19536;HTU21D;9913;51.168;4.124;2024-01-30T00:29:10;9.82;103.70
19536;HTU21D;9913;51.168;4.124;2024-01-30T00:31:39;9.81;103.76
19536;HTU21D;9913;51.168;4.124;2024-01-30T00:34:08;9.78;103.56
19536;HTU21D;9913;51.168;4.124;2024-01-30T00:36:37;9.77;103.61
19536;HTU21D;9913;51.168;4.124;2024-01-30T00:39:07;9.76;103.53
19536;HTU21D;9913;51.168;4.124;2024-01-30T00:41:36;9.80;103.66
19536;HTU21D;9913;51.168;4.124;2024-01-30T00:44:05;9.77;103.54
19536;HTU21D;9913;51.168;4.124;2024-01-30T00:46:33;9.79;103.71
19536;HTU21D;9913;51.168;4.124;2024-01-30T00:49:02;9.77;103.73
19536;HTU21D;9913;51.168;4.124;2024-01-30T00:51:30;9.82;103.83
19536;HTU21D;9913;51.168;4.124;2024-01-30T00:53:59;9.85;103.79
19536;HTU21D;9913;51.168;4.124;2024-01-30T00:56:29;9.88;103.82
19536;HTU21D;9913;51.168;4.124;2024-01-30T00:58:57;9.86;103.80
19536;HTU21D;9913;51.168;4.124;2024-01-30T01:01:26;9.90;103.88
19536;HTU21D;9913;51.168;4.124;2024-01-30T01:03:55;9.91;103.89
19536;HTU21D;9913;51.168;4.124;2024-01-30T01:06:25;9.89;103.77
19536;HTU21D;9913;51.168;4.124;2024-01-30T01:08:53;9.78;103.59
19536;HTU21D;9913;51.168;4.124;2024-01-30T01:11:21;9.78;103.80
19536;HTU21D;9913;51.168;4.124;2024-01-30T01:13:51;9.69;103.60
19536;HTU21D;9913;51.168;4.124;2024-01-30T01:16:20;9.66;103.55
19536;HTU21D;9913;51.168;4.124;2024-01-30T01:18:48;9.63;103.50
19536;HTU21D;9913;51.168;4.124;2024-01-30T01:21:17;9.66;103.70
19536;HTU21D;9913;51.168;4.124;2024-01-30T01:23:45;9.68;103.53
19536;HTU21D;9913;51.168;4.124;2024-01-30T01:26:14;9.65;103.54
19536;HTU21D;9913;51.168;4.124;2024-01-30T01:28:42;9.61;103.54
19536;HTU21D;9913;51.168;4.124;2024-01-30T01:31:12;9.60;103.44
19536;HTU21D;9913;51.168;4.124;2024-01-30T01:33:41;9.52;103.38
19536;HTU21D;9913;51.168;4.124;2024-01-30T01:36:10;9.53;103.47
19536;HTU21D;9913;51.168;4.124;2024-01-30T01:38:38;9.53;103.40
19536;HTU21D;9913;51.168;4.124;2024-01-30T01:41:06;9.55;103.50
19536;HTU21D;9913;51.168;4.124;2024-01-30T01:43:35;9.52;103.34
19536;HTU21D;9913;51.168;4.124;2024-01-30T01:46:05;9.53;103.38
19536;HTU21D;9913;51.168;4.124;2024-01-30T01:48:36;9.57;103.44
19536;HTU21D;9913;51.168;4.124;2024-01-30T01:51:07;9.55;103.38
19536;HTU21D;9913;51.168;4.124;2024-01-30T01:53:36;9.63;103.44
19536;HTU21D;9913;51.168;4.124;2024-01-30T01:56:05;9.60;103.40
19536;HTU21D;9913;51.168;4.124;2024-01-30T01:58:34;9.59;103.43
19536;HTU21D;9913;51.168;4.124;2024-01-30T02:01:03;9.57;103.30
19536;HTU21D;9913;51.168;4.124;2024-01-30T02:03:33;9.56;103.33
19536;HTU21D;9913;51.168;4.124;2024-01-30T02:06:04;9.56;103.26
19536;HTU21D;9913;51.168;4.124;2024-01-30T02:08:33;9.56;103.31
19536;HTU21D;9913;51.168;4.124;2024-01-30T02:11:01;9.68;103.42
19536;HTU21D;9913;51.168;4.124;2024-01-30T02:13:30;9.70;103.44
19536;HTU21D;9913;51.168;4.124;2024-01-30T02:15:58;9.70;103.31
19536;HTU21D;9913;51.168;4.124;2024-01-30T02:18:26;9.68;103.34
19536;HTU21D;9913;51.168;4.124;2024-01-30T02:21:16;9.75;103.48
19536;HTU21D;9913;51.168;4.124;2024-01-30T02:23:47;9.80;103.49
19536;HTU21D;9913;51.168;4.124;2024-01-30T02:26:16;9.78;103.43
19536;HTU21D;9913;51.168;4.124;2024-01-30T02:28:44;9.86;103.47
19536;HTU21D;9913;51.168;4.124;2024-01-30T02:31:13;9.86;103.48
19536;HTU21D;9913;51.168;4.124;2024-01-30T02:33:41;9.89;103.48
19536;HTU21D;9913;51.168;4.124;2024-01-30T02:36:09;9.90;103.47
19536;HTU21D;9913;51.168;4.124;2024-01-30T02:38:39;9.91;103.54
19536;HTU21D;9913;51.168;4.124;2024-01-30T02:41:07;9.98;103.71
19536;HTU21D;9913;51.168;4.124;2024-01-30T02:43:35;9.94;103.53
19536;HTU21D;9913;51.168;4.124;2024-01-30T02:46:04;9.89;103.37
19536;HTU21D;9913;51.168;4.124;2024-01-30T02:48:32;9.95;103.63
19536;HTU21D;9913;51.168;4.124;2024-01-30T02:51:01;9.93;103.58
19536;HTU21D;9913;51.168;4.124;2024-01-30T02:53:29;9.94;103.42
19536;HTU21D;9913;51.168;4.124;2024-01-30T02:55:59;9.94;103.48
19536;HTU21D;9913;51.168;4.124;2024-01-30T02:58:27;9.95;103.48
19536;HTU21D;9913;51.168;4.124;2024-01-30T03:00:56;9.96;103.41
19536;HTU21D;9913;51.168;4.124;2024-01-30T03:03:24;9.94;103.51
19536;HTU21D;9913;51.168;4.124;2024-01-30T03:05:52;9.95;103.48
19536;HTU21D;9913;51.168;4.124;2024-01-30T03:08:21;9.98;103.57
19536;HTU21D;9913;51.168;4.124;2024-01-30T03:10:49;9.98;103.48
19536;HTU21D;9913;51.168;4.124;2024-01-30T03:13:19;10.00;103.34
19536;HTU21D;9913;51.168;4.124;2024-01-30T03:15:47;10.00;103.39
19536;HTU21D;9913;51.168;4.124;2024-01-30T03:18:16;9.99;103.49
19536;HTU21D;9913;51.168;4.124;2024-01-30T03:20:45;10.04;103.55
19536;HTU21D;9913;51.168;4.124;2024-01-30T03:23:13;9.99;103.41
19536;HTU21D;9913;51.168;4.124;2024-01-30T03:25:41;9.94;103.29
19536;HTU21D;9913;51.168;4.124;2024-01-30T03:28:09;9.96;103.45
19536;HTU21D;9913;51.168;4.124;2024-01-30T03:30:39;9.90;103.30
19536;HTU21D;9913;51.168;4.124;2024-01-30T03:33:07;9.92;103.31
19536;HTU21D;9913;51.168;4.124;2024-01-30T03:35:36;9.81;103.17
19536;HTU21D;9913;51.168;4.124;2024-01-30T03:38:04;9.79;103.15
19536;HTU21D;9913;51.168;4.124;2024-01-30T03:40:32;9.86;103.25
19536;HTU21D;9913;51.168;4.124;2024-01-30T03:43:01;9.85;103.26
19536;HTU21D;9913;51.168;4.124;2024-01-30T03:45:29;9.79;103.11
19536;HTU21D;9913;51.168;4.124;2024-01-30T03:47:59;9.81;103.20
19536;HTU21D;9913;51.168;4.124;2024-01-30T03:50:27;9.82;103.09
19536;HTU21D;9913;51.168;4.124;2024-01-30T03:52:56;9.86;103.22
19536;HTU21D;9913;51.168;4.124;2024-01-30T03:55:24;9.86;103.09
19536;HTU21D;9913;51.168;4.124;2024-01-30T03:57:52;9.80;103.09
19536;HTU21D;9913;51.168;4.124;2024-01-30T04:00:21;9.81;103.09
19536;HTU21D;9913;51.168;4.124;2024-01-30T04:02:49;9.82;103.05
19536;HTU21D;9913;51.168;4.124;2024-01-30T04:05:19;9.78;103.04
19536;HTU21D;9913;51.168;4.124;2024-01-30T04:07:47;9.90;103.13
19536;HTU21D;9913;51.168;4.124;2024-01-30T04:10:16;9.85;103.06
19536;HTU21D;9913;51.168;4.124;2024-01-30T04:12:44;9.81;103.06
19536;HTU21D;9913;51.168;4.124;2024-01-30T04:15:13;9.78;103.04
19536;HTU21D;9913;51.168;4.124;2024-01-30T04:17:41;9.77;102.96
19536;HTU21D;9913;51.168;4.124;2024-01-30T04:20:13;9.75;102.89
19536;HTU21D;9913;51.168;4.124;2024-01-30T04:22:44;9.84;103.02
19536;HTU21D;9913;51.168;4.124;2024-01-30T04:25:13;9.78;102.92
19536;HTU21D;9913;51.168;4.124;2024-01-30T04:27:41;9.71;102.89
19536;HTU21D;9913;51.168;4.124;2024-01-30T04:30:10;9.77;103.05
19536;HTU21D;9913;51.168;4.124;2024-01-30T04:32:39;9.82;103.07
19536;HTU21D;9913;51.168;4.124;2024-01-30T04:35:07;9.85;102.96
19536;HTU21D;9913;51.168;4.124;2024-01-30T04:37:38;9.81;102.94
19536;HTU21D;9913;51.168;4.124;2024-01-30T04:40:08;9.84;102.99
19536;HTU21D;9913;51.168;4.124;2024-01-30T04:42:37;9.86;102.94
19536;HTU21D;9913;51.168;4.124;2024-01-30T04:45:06;9.84;102.96
19536;HTU21D;9913;51.168;4.124;2024-01-30T04:47:34;9.92;103.00
19536;HTU21D;9913;51.168;4.124;2024-01-30T04:50:03;9.92;103.05
19536;HTU21D;9913;51.168;4.124;2024-01-30T04:52:32;9.99;103.11
19536;HTU21D;9913;51.168;4.124;2024-01-30T04:55:00;10.01;102.92
19536;HTU21D;9913;51.168;4.124;2024-01-30T04:57:31;10.03;103.13
19536;HTU21D;9913;51.168;4.124;2024-01-30T05:00:00;10.04;102.96
19536;HTU21D;9913;51.168;4.124;2024-01-30T05:02:29;10.01;103.04
19536;HTU21D;9913;51.168;4.124;2024-01-30T05:04:58;10.00;102.92
19536;HTU21D;9913;51.168;4.124;2024-01-30T05:07:26;9.98;102.99
19536;HTU21D;9913;51.168;4.124;2024-01-30T05:09:54;10.05;102.99
19536;HTU21D;9913;51.168;4.124;2024-01-30T05:12:26;10.06;103.05
19536;HTU21D;9913;51.168;4.124;2024-01-30T05:14:56;10.05;103.01
19536;HTU21D;9913;51.168;4.124;2024-01-30T05:17:24;10.06;103.09
19536;HTU21D;9913;51.168;4.124;2024-01-30T05:19:52;10.00;102.99
19536;HTU21D;9913;51.168;4.124;2024-01-30T05:22:21;9.99;102.99
19536;HTU21D;9913;51.168;4.124;2024-01-30T05:24:49;9.99;103.01
19536;HTU21D;9913;51.168;4.124;2024-01-30T05:27:17;10.03;103.12
19536;HTU21D;9913;51.168;4.124;2024-01-30T05:29:46;10.00;103.08
19536;HTU21D;9913;51.168;4.124;2024-01-30T05:32:16;10.05;103.14
19536;HTU21D;9913;51.168;4.124;2024-01-30T05:34:44;10.00;102.96
19536;HTU21D;9913;51.168;4.124;2024-01-30T05:37:12;10.03;103.10
19536;HTU21D;9913;51.168;4.124;2024-01-30T05:39:44;10.10;103.24
19536;HTU21D;9913;51.168;4.124;2024-01-30T05:42:12;10.07;103.09
19536;HTU21D;9913;51.168;4.124;2024-01-30T05:44:41;10.09;103.13
19536;HTU21D;9913;51.168;4.124;2024-01-30T05:47:10;10.08;103.18
19536;HTU21D;9913;51.168;4.124;2024-01-30T05:49:39;10.11;103.27
19536;HTU21D;9913;51.168;4.124;2024-01-30T05:52:08;10.13;103.25
19536;HTU21D;9913;51.168;4.124;2024-01-30T05:54:37;10.12;103.13
19536;HTU21D;9913;51.168;4.124;2024-01-30T05:57:05;10.09;103.19
19536;HTU21D;9913;51.168;4.124;2024-01-30T05:59:33;10.00;103.11
19536;HTU21D;9913;51.168;4.124;2024-01-30T06:02:07;10.07;103.20
19536;HTU21D;9913;51.168;4.124;2024-01-30T06:04:35;10.04;103.25
19536;HTU21D;9913;51.168;4.124;2024-01-30T06:07:05;10.07;103.25
19536;HTU21D;9913;51.168;4.124;2024-01-30T06:09:35;10.03;103.13
19536;HTU21D;9913;51.168;4.124;2024-01-30T06:12:04;10.07;103.36
19536;HTU21D;9913;51.168;4.124;2024-01-30T06:14:33;10.08;103.26
19536;HTU21D;9913;51.168;4.124;2024-01-30T06:17:01;10.07;103.44
19536;HTU21D;9913;51.168;4.124;2024-01-30T06:19:29;10.10;103.34
19536;HTU21D;9913;51.168;4.124;2024-01-30T06:21:58;10.10;103.45
19536;HTU21D;9913;51.168;4.124;2024-01-30T06:24:27;10.13;103.39
19536;HTU21D;9913;51.168;4.124;2024-01-30T06:26:56;10.06;103.28
19536;HTU21D;9913;51.168;4.124;2024-01-30T06:29:24;10.12;103.44
19536;HTU21D;9913;51.168;4.124;2024-01-30T06:31:53;10.13;103.27
19536;HTU21D;9913;51.168;4.124;2024-01-30T06:34:21;10.13;103.35
19536;HTU21D;9913;51.168;4.124;2024-01-30T06:36:50;10.13;103.28
19536;HTU21D;9913;51.168;4.124;2024-01-30T06:39:18;10.12;103.31
19536;HTU21D;9913;51.168;4.124;2024-01-30T06:41:48;10.10;103.31
19536;HTU21D;9913;51.168;4.124;2024-01-30T06:44:16;10.15;103.34
19536;HTU21D;9913;51.168;4.124;2024-01-30T06:46:44;10.18;103.50
19536;HTU21D;9913;51.168;4.124;2024-01-30T06:49:13;10.15;103.36
19536;HTU21D;9913;51.168;4.124;2024-01-30T06:51:41;10.14;103.53
19536;HTU21D;9913;51.168;4.124;2024-01-30T06:54:09;10.13;103.50
19536;HTU21D;9913;51.168;4.124;2024-01-30T06:56:38;10.10;103.25
19536;HTU21D;9913;51.168;4.124;2024-01-30T06:59:08;10.11;103.47
19536;HTU21D;9913;51.168;4.124;2024-01-30T07:01:36;10.14;103.44
19536;HTU21D;9913;51.168;4.124;2024-01-30T07:04:04;10.12;103.40
19536;HTU21D;9913;51.168;4.124;2024-01-30T07:06:33;10.15;103.47
19536;HTU21D;9913;51.168;4.124;2024-01-30T07:09:01;10.14;103.27
19536;HTU21D;9913;51.168;4.124;2024-01-30T07:11:30;10.16;103.41
19536;HTU21D;9913;51.168;4.124;2024-01-30T07:13:59;10.18;103.33
19536;HTU21D;9913;51.168;4.124;2024-01-30T07:16:32;10.08;103.21
19536;HTU21D;9913;51.168;4.124;2024-01-30T07:19:00;10.08;103.31
19536;HTU21D;9913;51.168;4.124;2024-01-30T07:21:29;10.10;103.34
19536;HTU21D;9913;51.168;4.124;2024-01-30T07:23:57;10.11;103.28
19536;HTU21D;9913;51.168;4.124;2024-01-30T07:26:26;10.07;103.36
19536;HTU21D;9913;51.168;4.124;2024-01-30T07:28:56;10.12;103.25
19536;HTU21D;9913;51.168;4.124;2024-01-30T07:31:25;10.12;103.27
19536;HTU21D;9913;51.168;4.124;2024-01-30T07:33:56;10.14;103.34
19536;HTU21D;9913;51.168;4.124;2024-01-30T07:36:25;10.20;103.34
19536;HTU21D;9913;51.168;4.124;2024-01-30T07:38:53;10.18;103.22
19536;HTU21D;9913;51.168;4.124;2024-01-30T07:41:22;10.22;103.33
19536;HTU21D;9913;51.168;4.124;2024-01-30T07:43:52;10.27;103.51
19536;HTU21D;9913;51.168;4.124;2024-01-30T07:46:20;10.27;103.28
19536;HTU21D;9913;51.168;4.124;2024-01-30T07:48:49;10.30;103.26
19536;HTU21D;9913;51.168;4.124;2024-01-30T07:51:22;10.27;103.27
19536;HTU21D;9913;51.168;4.124;2024-01-30T07:53:54;10.27;103.18
19536;HTU21D;9913;51.168;4.124;2024-01-30T07:56:25;10.33;103.25
19536;HTU21D;9913;51.168;4.124;2024-01-30T07:58:53;10.35;103.28
19536;HTU21D;9913;51.168;4.124;2024-01-30T08:01:21;10.39;103.33
19536;HTU21D;9913;51.168;4.124;2024-01-30T08:03:50;10.39;103.32
19536;HTU21D;9913;51.168;4.124;2024-01-30T08:06:19;10.44;103.35
19536;HTU21D;9913;51.168;4.124;2024-01-30T08:08:49;10.41;103.29
19536;HTU21D;9913;51.168;4.124;2024-01-30T08:11:20;10.38;103.10
19536;HTU21D;9913;51.168;4.124;2024-01-30T08:13:52;10.42;103.26
19536;HTU21D;9913;51.168;4.124;2024-01-30T08:16:21;10.44;103.22
19536;HTU21D;9913;51.168;4.124;2024-01-30T08:18:49;10.49;103.28
19536;HTU21D;9913;51.168;4.124;2024-01-30T08:21:18;10.50;103.28
19536;HTU21D;9913;51.168;4.124;2024-01-30T08:23:46;10.52;103.31
19536;HTU21D;9913;51.168;4.124;2024-01-30T08:26:16;10.53;103.30
19536;HTU21D;9913;51.168;4.124;2024-01-30T08:28:44;10.55;103.28
19536;HTU21D;9913;51.168;4.124;2024-01-30T08:31:13;10.57;103.21
19536;HTU21D;9913;51.168;4.124;2024-01-30T08:33:41;10.59;103.19
19536;HTU21D;9913;51.168;4.124;2024-01-30T08:36:11;10.68;103.46
19536;HTU21D;9913;51.168;4.124;2024-01-30T08:38:40;10.67;103.24
19536;HTU21D;9913;51.168;4.124;2024-01-30T08:41:08;10.65;103.18
19536;HTU21D;9913;51.168;4.124;2024-01-30T08:43:38;10.64;103.15
19536;HTU21D;9913;51.168;4.124;2024-01-30T08:46:06;10.67;103.26
19536;HTU21D;9913;51.168;4.124;2024-01-30T08:48:36;10.64;103.11
19536;HTU21D;9913;51.168;4.124;2024-01-30T08:51:05;10.69;103.23
19536;HTU21D;9913;51.168;4.124;2024-01-30T08:53:35;10.66;103.23
19536;HTU21D;9913;51.168;4.124;2024-01-30T08:56:04;10.62;103.18
19536;HTU21D;9913;51.168;4.124;2024-01-30T08:58:33;10.68;103.21
19536;HTU21D;9913;51.168;4.124;2024-01-30T09:01:03;10.71;103.41
19536;HTU21D;9913;51.168;4.124;2024-01-30T09:03:33;10.74;103.20
19536;HTU21D;9913;51.168;4.124;2024-01-30T09:06:01;10.82;103.26
19536;HTU21D;9913;51.168;4.124;2024-01-30T09:08:29;10.85;103.28
19536;HTU21D;9913;51.168;4.124;2024-01-30T09:10:58;10.82;103.09
19536;HTU21D;9913;51.168;4.124;2024-01-30T09:13:26;10.84;102.99
19536;HTU21D;9913;51.168;4.124;2024-01-30T09:15:54;10.92;103.02
19536;HTU21D;9913;51.168;4.124;2024-01-30T09:18:24;10.99;103.23
19536;HTU21D;9913;51.168;4.124;2024-01-30T09:20:53;11.09;103.31
19536;HTU21D;9913;51.168;4.124;2024-01-30T09:23:21;11.13;103.38
19536;HTU21D;9913;51.168;4.124;2024-01-30T09:25:49;11.20;103.19
19536;HTU21D;9913;51.168;4.124;2024-01-30T09:28:18;11.27;103.31
19536;HTU21D;9913;51.168;4.124;2024-01-30T09:30:46;11.32;103.44
19536;HTU21D;9913;51.168;4.124;2024-01-30T09:33:15;11.36;103.55
19536;HTU21D;9913;51.168;4.124;2024-01-30T09:35:45;11.39;103.28
19536;HTU21D;9913;51.168;4.124;2024-01-30T09:38:13;11.47;103.34
19536;HTU21D;9913;51.168;4.124;2024-01-30T09:40:41;11.53;103.25
19536;HTU21D;9913;51.168;4.124;2024-01-30T09:43:13;11.42;103.52
19536;HTU21D;9913;51.168;4.124;2024-01-30T09:45:44;11.44;103.57
19536;HTU21D;9913;51.168;4.124;2024-01-30T09:48:13;11.53;103.85
19536;HTU21D;9913;51.168;4.124;2024-01-30T09:50:44;11.45;103.55
19536;HTU21D;9913;51.168;4.124;2024-01-30T09:53:14;11.48;103.85
19536;HTU21D;9913;51.168;4.124;2024-01-30T09:55:43;11.54;103.85
19536;HTU21D;9913;51.168;4.124;2024-01-30T09:58:12;11.57;104.10
19536;HTU21D;9913;51.168;4.124;2024-01-30T10:00:40;11.51;104.07
19536;HTU21D;9913;51.168;4.124;2024-01-30T10:03:09;11.45;104.15
19536;HTU21D;9913;51.168;4.124;2024-01-30T10:05:40;11.51;104.13
19536;HTU21D;9913;51.168;4.124;2024-01-30T10:08:10;11.62;104.09
19536;HTU21D;9913;51.168;4.124;2024-01-30T10:10:38;11.66;105.16
19536;HTU21D;9913;51.168;4.124;2024-01-30T10:13:07;11.55;105.21
19536;HTU21D;9913;51.168;4.124;2024-01-30T10:15:37;11.46;105.79
19536;HTU21D;9913;51.168;4.124;2024-01-30T10:18:06;11.52;106.30
19536;HTU21D;9913;51.168;4.124;2024-01-30T10:20:34;11.53;106.31
19536;HTU21D;9913;51.168;4.124;2024-01-30T10:23:03;11.44;105.95
19536;HTU21D;9913;51.168;4.124;2024-01-30T10:25:33;11.29;106.20
19536;HTU21D;9913;51.168;4.124;2024-01-30T10:28:01;11.11;106.82
19536;HTU21D;9913;51.168;4.124;2024-01-30T10:30:30;10.92;106.46
19536;HTU21D;9913;51.168;4.124;2024-01-30T10:32:58;10.88;106.79
19536;HTU21D;9913;51.168;4.124;2024-01-30T10:35:27;10.84;106.21
19536;HTU21D;9913;51.168;4.124;2024-01-30T10:37:57;10.73;106.31
19536;HTU21D;9913;51.168;4.124;2024-01-30T10:40:28;10.71;106.48
19536;HTU21D;9913;51.168;4.124;2024-01-30T10:43:00;10.77;106.79
19536;HTU21D;9913;51.168;4.124;2024-01-30T10:45:31;10.81;107.68
19536;HTU21D;9913;51.168;4.124;2024-01-30T10:48:00;10.82;107.69
19536;HTU21D;9913;51.168;4.124;2024-01-30T10:50:30;10.89;108.18
19536;HTU21D;9913;51.168;4.124;2024-01-30T10:53:00;11.17;107.80
19536;HTU21D;9913;51.168;4.124;2024-01-30T10:55:29;11.33;108.46
19536;HTU21D;9913;51.168;4.124;2024-01-30T10:58:00;11.41;108.32
19536;HTU21D;9913;51.168;4.124;2024-01-30T11:00:29;11.32;108.72
19536;HTU21D;9913;51.168;4.124;2024-01-30T11:03:00;11.25;108.59
19536;HTU21D;9913;51.168;4.124;2024-01-30T11:05:29;11.13;108.40
19536;HTU21D;9913;51.168;4.124;2024-01-30T11:08:10;11.32;107.86
19536;HTU21D;9913;51.168;4.124;2024-01-30T11:10:46;11.32;108.20
19536;HTU21D;9913;51.168;4.124;2024-01-30T11:13:16;11.87;108.91
19536;HTU21D;9913;51.168;4.124;2024-01-30T11:15:47;12.16;108.49
19536;HTU21D;9913;51.168;4.124;2024-01-30T11:18:23;11.81;109.22
19536;HTU21D;9913;51.168;4.124;2024-01-30T11:20:52;11.63;108.49
19536;HTU21D;9913;51.168;4.124;2024-01-30T11:23:22;11.45;109.32
19536;HTU21D;9913;51.168;4.124;2024-01-30T11:25:52;11.51;108.70
19536;HTU21D;9913;51.168;4.124;2024-01-30T11:28:22;11.38;108.65
19536;HTU21D;9913;51.168;4.124;2024-01-30T11:30:50;11.23;108.72
19536;HTU21D;9913;51.168;4.124;2024-01-30T11:33:28;11.16;109.90
19536;HTU21D;9913;51.168;4.124;2024-01-30T11:36:01;11.22;108.57
19536;HTU21D;9913;51.168;4.124;2024-01-30T11:38:29;11.30;108.10
19536;HTU21D;9913;51.168;4.124;2024-01-30T11:40:58;11.18;108.26
19536;HTU21D;9913;51.168;4.124;2024-01-30T11:43:28;11.11;108.40
19536;HTU21D;9913;51.168;4.124;2024-01-30T11:45:56;11.12;108.23
19536;HTU21D;9913;51.168;4.124;2024-01-30T11:48:26;11.10;107.88
19536;HTU21D;9913;51.168;4.124;2024-01-30T11:50:54;10.99;108.20
19536;HTU21D;9913;51.168;4.124;2024-01-30T11:53:23;10.94;107.18
19536;HTU21D;9913;51.168;4.124;2024-01-30T11:55:51;11.01;108.04
19536;HTU21D;9913;51.168;4.124;2024-01-30T11:58:19;11.08;108.07
19536;HTU21D;9913;51.168;4.124;2024-01-30T12:00:55;11.16;108.88
19536;HTU21D;9913;51.168;4.124;2024-01-30T12:03:24;11.09;108.58
19536;HTU21D;9913;51.168;4.124;2024-01-30T12:05:56;11.16;108.43
19536;HTU21D;9913;51.168;4.124;2024-01-30T12:08:26;11.19;108.05
19536;HTU21D;9913;51.168;4.124;2024-01-30T12:10:56;11.07;108.72
19536;HTU21D;9913;51.168;4.124;2024-01-30T12:13:25;10.93;108.51
19536;HTU21D;9913;51.168;4.124;2024-01-30T12:16:01;10.85;107.98
19536;HTU21D;9913;51.168;4.124;2024-01-30T12:18:29;10.88;107.99
19536;HTU21D;9913;51.168;4.124;2024-01-30T12:20:58;10.77;107.98
19536;HTU21D;9913;51.168;4.124;2024-01-30T12:23:27;10.71;108.72
19536;HTU21D;9913;51.168;4.124;2024-01-30T12:25:57;10.63;107.91
19536;HTU21D;9913;51.168;4.124;2024-01-30T12:28:26;10.58;108.34
19536;HTU21D;9913;51.168;4.124;2024-01-30T12:30:55;10.53;108.21
19536;HTU21D;9913;51.168;4.124;2024-01-30T12:33:27;10.48;107.33
19536;HTU21D;9913;51.168;4.124;2024-01-30T12:35:56;10.44;107.54
19536;HTU21D;9913;51.168;4.124;2024-01-30T12:38:30;10.42;107.63
19536;HTU21D;9913;51.168;4.124;2024-01-30T12:40:58;10.44;107.12
19536;HTU21D;9913;51.168;4.124;2024-01-30T12:43:26;10.40;106.77
19536;HTU21D;9913;51.168;4.124;2024-01-30T12:46:05;10.30;107.33
19536;HTU21D;9913;51.168;4.124;2024-01-30T12:48:35;10.27;107.64
19536;HTU21D;9913;51.168;4.124;2024-01-30T12:51:04;10.29;107.24
19536;HTU21D;9913;51.168;4.124;2024-01-30T12:53:32;10.20;107.42
19536;HTU21D;9913;51.168;4.124;2024-01-30T12:56:01;10.12;107.11
19536;HTU21D;9913;51.168;4.124;2024-01-30T12:58:29;10.04;107.40
19536;HTU21D;9913;51.168;4.124;2024-01-30T13:00:58;9.92;107.01
19536;HTU21D;9913;51.168;4.124;2024-01-30T13:03:26;9.99;107.66
19536;HTU21D;9913;51.168;4.124;2024-01-30T13:05:56;9.96;107.43
19536;HTU21D;9913;51.168;4.124;2024-01-30T13:08:25;9.88;107.52
19536;HTU21D;9913;51.168;4.124;2024-01-30T13:10:53;9.93;107.75
19536;HTU21D;9913;51.168;4.124;2024-01-30T13:13:22;9.88;107.62
19536;HTU21D;9913;51.168;4.124;2024-01-30T13:15:50;9.93;107.51
19536;HTU21D;9913;51.168;4.124;2024-01-30T13:18:19;9.86;107.82
19536;HTU21D;9913;51.168;4.124;2024-01-30T13:20:47;9.90;107.75
19536;HTU21D;9913;51.168;4.124;2024-01-30T13:23:17;9.81;107.29
19536;HTU21D;9913;51.168;4.124;2024-01-30T13:25:46;9.77;107.53
19536;HTU21D;9913;51.168;4.124;2024-01-30T13:28:14;9.65;107.72
19536;HTU21D;9913;51.168;4.124;2024-01-30T13:30:42;9.69;107.72
19536;HTU21D;9913;51.168;4.124;2024-01-30T13:33:11;9.69;107.47
19536;HTU21D;9913;51.168;4.124;2024-01-30T13:35:39;9.61;107.69
19536;HTU21D;9913;51.168;4.124;2024-01-30T13:38:07;9.59;107.37
19536;HTU21D;9913;51.168;4.124;2024-01-30T13:40:37;9.54;107.71
19536;HTU21D;9913;51.168;4.124;2024-01-30T13:43:06;9.53;107.59
19536;HTU21D;9913;51.168;4.124;2024-01-30T13:45:34;9.53;106.98
19536;HTU21D;9913;51.168;4.124;2024-01-30T13:48:03;9.52;107.53
19536;HTU21D;9913;51.168;4.124;2024-01-30T13:50:31;9.52;107.51
19536;HTU21D;9913;51.168;4.124;2024-01-30T13:53:02;9.52;107.26
19536;HTU21D;9913;51.168;4.124;2024-01-30T13:55:31;9.51;107.94
19536;HTU21D;9913;51.168;4.124;2024-01-30T13:58:01;9.46;107.53
19536;HTU21D;9913;51.168;4.124;2024-01-30T14:00:29;9.44;107.36
19536;HTU21D;9913;51.168;4.124;2024-01-30T14:02:58;9.42;107.49
19536;HTU21D;9913;51.168;4.124;2024-01-30T14:05:26;9.50;107.55
19536;HTU21D;9913;51.168;4.124;2024-01-30T14:07:56;9.51;107.55
19536;HTU21D;9913;51.168;4.124;2024-01-30T14:10:25;9.49;107.13
19536;HTU21D;9913;51.168;4.124;2024-01-30T14:12:54;9.47;107.39
19536;HTU21D;9913;51.168;4.124;2024-01-30T14:15:25;9.48;106.95
19536;HTU21D;9913;51.168;4.124;2024-01-30T14:17:55;9.51;107.27
19536;HTU21D;9913;51.168;4.124;2024-01-30T14:20:25;9.56;107.01
19536;HTU21D;9913;51.168;4.124;2024-01-30T14:22:54;9.48;108.08
19536;HTU21D;9913;51.168;4.124;2024-01-30T14:25:23;9.44;107.16
19536;HTU21D;9913;51.168;4.124;2024-01-30T14:27:52;9.44;107.23
19536;HTU21D;9913;51.168;4.124;2024-01-30T14:30:21;9.41;107.08
19536;HTU21D;9913;51.168;4.124;2024-01-30T14:32:51;9.46;107.08
19536;HTU21D;9913;51.168;4.124;2024-01-30T14:35:19;9.46;107.53
19536;HTU21D;9913;51.168;4.124;2024-01-30T14:37:48;9.35;107.17
19536;HTU21D;9913;51.168;4.124;2024-01-30T14:40:17;9.35;107.03
19536;HTU21D;9913;51.168;4.124;2024-01-30T14:42:46;9.40;107.34
19536;HTU21D;9913;51.168;4.124;2024-01-30T14:45:15;9.40;106.90
19536;HTU21D;9913;51.168;4.124;2024-01-30T14:47:44;9.36;107.02
19536;HTU21D;9913;51.168;4.124;2024-01-30T14:50:15;9.32;106.98
19536;HTU21D;9913;51.168;4.124;2024-01-30T14:52:44;9.21;106.45
19536;HTU21D;9913;51.168;4.124;2024-01-30T14:55:13;9.14;106.05
19536;HTU21D;9913;51.168;4.124;2024-01-30T14:57:41;9.08;105.98
19536;HTU21D;9913;51.168;4.124;2024-01-30T15:00:13;9.07;106.13
19536;HTU21D;9913;51.168;4.124;2024-01-30T15:02:44;9.08;106.03
19536;HTU21D;9913;51.168;4.124;2024-01-30T15:05:15;9.09;106.22
19536;HTU21D;9913;51.168;4.124;2024-01-30T15:07:44;9.06;105.85
19536;HTU21D;9913;51.168;4.124;2024-01-30T15:10:12;8.96;105.76
19536;HTU21D;9913;51.168;4.124;2024-01-30T15:12:41;8.91;105.36
19536;HTU21D;9913;51.168;4.124;2024-01-30T15:15:09;8.82;105.66
19536;HTU21D;9913;51.168;4.124;2024-01-30T15:17:38;8.77;105.37
19536;HTU21D;9913;51.168;4.124;2024-01-30T15:20:07;8.75;105.90
19536;HTU21D;9913;51.168;4.124;2024-01-30T15:22:38;8.87;105.56
19536;HTU21D;9913;51.168;4.124;2024-01-30T15:25:07;8.86;105.34
19536;HTU21D;9913;51.168;4.124;2024-01-30T15:27:36;8.85;105.56
19536;HTU21D;9913;51.168;4.124;2024-01-30T15:30:37;8.82;105.76
19536;HTU21D;9913;51.168;4.124;2024-01-30T15:33:24;8.81;105.40
19536;HTU21D;9913;51.168;4.124;2024-01-30T15:36:20;8.85;105.62